Latest Weather Observations for Clermont Airport

IDQ60801

Issued at 12:05 pm EST Monday 22 September 2014 (issued every 30 minutes, with the page automatically refreshed every 10 minutes)

About weather observations | Map of weather stations | Latest weather observations for QLD | Other Formats
Station Details ID: 035124 Name: CLERMONT AIRPORT Lat: -22.78 Lon: 147.62 Height: 270.27 m
Data from the previous 72 hours. | See also: Recent months at Clermont Airport
Date/Time
EST
Temp
°C
App
Temp
°C
Dew
Point
Rel
Hum
%
Delta-T
°C
Wind Press
QNH
hPa
Press
MSL
hPa
Rain
since 9 am
mm
Dir
 
Spd
km/h
Gust
km/h
Spd
kts
Gust
kts
22/12:00pm 14.3 12.8 13.0 92 0.7 SE 13 22 7 12 1022.6 1021.7 8.2
22/11:30am 14.2 12.4 13.2 94 0.6 SE 15 24 8 13 1023.3 1022.4 8.2
22/11:00am 13.9 12.8 13.0 94 0.5 ESE 11 24 6 13 1023.5 1022.6 7.4
22/10:30am 13.8 12.2 12.9 94 0.5 SSE 13 20 7 11 1024.1 1023.2 6.4
22/10:00am 13.5 11.8 12.6 94 0.5 SSE 13 19 7 10 1024.1 1023.2 5.8
22/09:30am 13.3 12.4 12.5 95 0.4 S 9 17 5 9 1024.4 1023.5 3.2
22/09:00am 13.3 11.6 12.5 95 0.4 S 13 20 7 11 1024.1 1023.2 61.6
22/08:30am 13.2 11.1 12.4 95 0.4 SSE 15 28 8 15 1023.4 1022.5 59.2
22/08:00am 13.1 11.4 12.3 95 0.4 SSE 13 24 7 13 1023.3 1022.4 56.0
22/07:30am 13.2 10.7 12.3 94 0.5 S 17 24 9 13 1023.0 1022.1 51.2
22/07:00am 13.2 11.8 12.3 94 0.5 S 11 22 6 12 1022.3 1021.3 47.2
22/06:30am 13.3 10.8 12.4 94 0.5 S 17 26 9 14 1022.0 1021.0 43.4
22/06:00am 13.3 10.4 12.4 94 0.5 S 19 26 10 14 1021.3 1020.4 41.8
22/05:30am 13.4 10.4 12.5 94 0.5 S 20 30 11 16 1021.3 1020.4 40.0
22/05:00am 13.4 10.4 12.6 95 0.4 S 20 32 11 17 1021.2 1020.3 36.8
22/04:30am 13.4 10.6 12.6 95 0.4 SSW 19 30 10 16 1020.9 1020.0 33.2
22/04:00am 13.5 11.5 12.7 95 0.4 SSW 15 20 8 11 1020.5 1019.6 26.6
22/03:30am 13.9 12.4 13.1 95 0.4 SSW 13 20 7 11 1020.1 1019.2 19.6
22/03:00am 14.1 12.7 13.3 95 0.4 S 13 19 7 10 1019.9 1019.0 17.4
22/02:30am 13.9 12.4 13.1 95 0.4 S 13 17 7 9 1020.5 1019.6 14.8
22/02:00am 14.1 13.4 13.1 94 0.6 SSW 9 11 5 6 1021.0 1020.1 11.6
22/01:30am 14.2 13.8 13.1 93 0.6 SW 7 9 4 5 1021.1 1020.2 8.4
22/01:00am 14.4 13.6 12.8 90 0.9 SSE 9 13 5 7 1020.6 1019.7 6.4
22/12:30am 14.3 13.1 12.7 90 0.9 SE 11 20 6 11 1020.4 1019.5 6.4
22/12:00am 14.2 13.4 12.8 91 0.8 SE 9 19 5 10 1020.6 1019.7 6.4
 
Date/Time
EST
Temp
°C
App
Temp
°C
Dew
Point
Rel
Hum
%
Delta-T
°C
Wind Press
QNH
hPa
Press
MSL
hPa
Rain
since 9 am
mm
Dir
 
Spd
km/h
Gust
km/h
Spd
kts
Gust
kts
21/11:30pm 14.0 13.1 12.7 92 0.7 ESE 9 19 5 10 1020.6 1019.7 6.4
21/11:00pm 14.0 12.3 12.6 91 0.8 ESE 13 20 7 11 1020.0 1019.1 6.2
21/10:30pm 14.1 13.8 12.8 92 0.7 SE 6 11 3 6 1022.0 1021.0 5.6
21/10:00pm 14.3 14.8 12.9 91 0.8 NNE 2 7 1 4 1022.6 1021.7 5.0
21/09:30pm 14.1 13.2 12.5 90 0.9 SE 9 15 5 8 1021.8 1020.9 4.8
21/09:00pm 14.3 13.0 12.5 89 1.0 S 11 17 6 9 1022.1 1021.1 4.8
21/08:30pm 14.2 13.2 12.4 89 1.0 SE 9 15 5 8 1021.0 1020.1 4.8
21/08:00pm 14.8 13.7 11.9 83 1.6 SE 9 15 5 8 1022.1 1021.1 4.2
21/07:30pm 14.6 13.0 11.7 83 1.6 ESE 11 19 6 10 1021.4 1020.5 4.2
21/07:00pm 14.9 13.2 12.4 85 1.4 E 13 24 7 13 1020.9 1020.0 4.2
21/06:30pm 14.9 13.5 13.4 91 0.8 E 13 19 7 10 1020.3 1019.4 4.2
21/06:00pm 15.1 15.0 13.3 89 1.0 ESE 6 11 3 6 1021.3 1020.4 3.8
21/05:30pm 15.1 13.6 13.1 88 1.1 E 13 22 7 12 1020.4 1019.5 3.8
21/05:00pm 15.4 14.8 13.6 89 1.0 S 9 13 5 7 1020.8 1019.9 3.2
21/04:30pm 16.2 15.0 12.7 80 2.0 SSE 11 17 6 9 1020.3 1019.4 0.8
21/04:00pm 18.2 15.3 11.0 63 3.9 SE 17 28 9 15 1020.0 1019.1 0.0
21/03:30pm 18.4 14.2 11.0 62 4.1 SSE 24 41 13 22 1020.1 1019.2 0.0
21/03:00pm 18.4 14.2 11.2 63 4.0 SSE 24 46 13 25 1019.2 1018.3 0.0
21/02:30pm 18.5 14.6 12.0 66 3.6 SSE 24 37 13 20 1020.0 1019.1 0.0
21/02:00pm 18.2 14.3 12.2 68 3.4 SSE 24 35 13 19 1020.4 1019.5 0.0
21/01:30pm 16.8 12.2 12.3 75 2.5 S 28 41 15 22 1020.7 1019.8 0.0
21/01:00pm 17.1 13.0 12.8 76 2.4 SSE 26 43 14 23 1020.5 1019.6 0.0
21/12:43pm 18.4 14.1 13.1 71 3.0 S 28 39 15 21 1020.6 1019.7 0.0
21/12:30pm 23.3 22.7 12.3 50 6.3 ESE 7 19 4 10 1020.5 1019.6 0.0
21/12:00pm 24.2 22.5 11.2 44 7.4 ESE 11 22 6 12 1020.5 1019.6 0.0
21/11:30am 23.8 22.7 12.1 48 6.7 E 9 17 5 9 1020.8 1019.9 0.0
21/11:00am 23.6 22.6 12.3 49 6.5 E 9 15 5 8 1021.0 1020.1 0.0
21/10:30am 22.1 21.7 14.2 61 4.7 SSW 9 15 5 8 1021.6 1020.7 0.0
21/10:00am 21.2 20.0 14.1 64 4.2 S 13 19 7 10 1021.7 1020.8 0.0
21/09:30am 21.0 19.5 14.2 65 4.0 S 15 20 8 11 1022.0 1021.0 0.0
21/09:00am 19.4 19.0 14.2 72 3.0 S 9 15 5 8 1021.8 1020.9 0.0
21/08:30am 18.8 18.8 14.1 74 2.7 S 7 9 4 5 1021.3 1020.4 0.0
21/08:00am 17.7 17.6 13.4 76 2.5 SSE 6 7 3 4 1020.7 1019.8 0.0
21/07:30am 16.7 16.9 13.2 80 2.0 SE 4 7 2 4 1020.4 1019.5 0.0
21/07:00am 16.0 17.0 13.1 83 1.6 CALM 0 4 0 2 1020.0 1019.1 0.0
21/06:30am 15.5 15.2 12.8 84 1.5 S 6 7 3 4 1020.0 1019.1 0.0
21/06:00am 15.4 15.2 12.9 85 1.4 S 6 7 3 4 1019.5 1018.6 0.0
21/05:30am 14.9 14.5 12.4 85 1.4 S 6 7 3 4 1019.2 1018.3 0.0
21/05:00am 14.1 13.8 11.3 83 1.5 S 4 6 2 3 1018.9 1017.9 0.0
21/04:30am 15.2 15.5 12.3 83 1.6 E 2 4 1 2 1018.2 1017.2 0.0
21/04:00am 15.2 15.9 12.3 83 1.6 CALM 0 2 0 1 1017.8 1016.9 0.0
21/03:30am 16.4 16.6 12.9 80 2.0 SSE 4 6 2 3 1018.1 1017.1 0.0
21/03:00am 16.7 17.6 12.8 78 2.2 CALM 0 0 0 0 1018.3 1017.3 0.0
21/02:30am 17.2 17.6 12.5 74 2.6 ENE 2 7 1 4 1018.4 1017.4 0.0
21/02:00am 17.9 18.0 12.6 71 3.0 ENE 4 6 2 3 1018.6 1017.6 0.0
21/01:30am 18.6 18.4 13.0 70 3.2 ENE 6 11 3 6 1018.9 1017.9 0.0
21/01:00am 19.0 18.9 13.2 69 3.3 NNE 6 9 3 5 1019.2 1018.3 0.0
21/12:30am 19.0 18.5 12.7 67 3.6 NE 7 11 4 6 1019.1 1018.1 0.0
21/12:00am 19.5 18.7 12.8 65 3.8 NE 9 17 5 9 1019.0 1018.0 0.0
 
Date/Time
EST
Temp
°C
App
Temp
°C
Dew
Point
Rel
Hum
%
Delta-T
°C
Wind Press
QNH
hPa
Press
MSL
hPa
Rain
since 9 am
mm
Dir
 
Spd
km/h
Gust
km/h
Spd
kts
Gust
kts
20/11:30pm 19.9 19.0 12.7 63 4.1 NE 9 13 5 7 1019.2 1018.3 0.0
20/11:00pm 20.4 19.5 12.6 61 4.4 NNE 9 13 5 7 1019.1 1018.1 0.0
20/10:30pm 21.1 21.0 13.8 63 4.3 NE 7 13 4 7 1018.6 1017.6 0.0
20/10:00pm 21.4 21.4 13.6 61 4.5 NE 6 11 3 6 1018.6 1017.6 0.0
20/09:30pm 20.6 20.3 11.5 56 5.1 ENE 4 7 2 4 1018.6 1017.6 0.0
20/09:00pm 19.1 17.1 2.5 33 7.7 E 2 4 1 2 1018.3 1017.3 0.0
20/08:30pm 19.8 17.2 3.1 33 7.9 S 6 9 3 5 1018.1 1017.1 0.0
20/08:00pm 20.2 17.8 2.1 30 8.5 S 4 6 2 3 1017.3 1016.4 0.0
20/07:30pm 21.9 19.4 1.6 26 9.5 S 4 6 2 3 1016.7 1015.8 0.0
20/07:00pm 24.3 21.4 1.2 22 10.9 S 6 6 3 3 1016.3 1015.4 0.0
20/06:30pm 25.2 22.0 0.7 20 11.6 SSW 7 9 4 5 1015.7 1014.7 0.0
20/06:00pm 26.7 22.7 0.4 18 12.5 S 11 17 6 9 1015.3 1014.3 0.0
20/05:30pm 28.1 23.9 -0.9 15 13.6 SSE 11 17 6 9 1015.0 1014.0 0.0
20/05:00pm 28.3 24.5 -0.8 15 13.7 SSE 9 15 5 8 1014.6 1013.6 0.0
20/04:30pm 28.8 24.8 0.5 16 13.7 SSE 11 19 6 10 1014.3 1013.3 0.0
20/04:00pm 28.8 25.4 -0.4 15 13.9 ESE 7 15 4 8 1014.0 1013.1 0.0
20/03:30pm 29.0 25.7 -0.2 15 14.0 SE 7 15 4 8 1013.8 1012.9 0.0
20/03:00pm 28.9 25.7 0.6 16 13.7 SE 7 19 4 10 1013.7 1012.8 0.0
20/02:30pm 28.7 24.8 1.3 17 13.4 SSW 11 22 6 12 1014.0 1013.1 0.0
20/02:00pm 28.9 26.1 2.2 18 13.3 SSE 6 15 3 8 1014.6 1013.6 0.0
20/01:30pm 28.5 24.3 1.9 18 13.2 SSE 13 22 7 12 1015.1 1014.1 0.0
20/01:00pm 28.1 24.8 2.3 19 12.8 E 9 17 5 9 1015.7 1014.7 0.0
20/12:30pm 27.3 23.3 3.1 21 12.1 SSW 13 20 7 11 1016.4 1015.5 0.0
20/12:00pm 27.2 23.5 4.3 23 11.7 S 13 19 7 10 1016.8 1015.9 0.0
20/11:30am 27.0 23.5 3.5 22 11.8 S 11 19 6 10 1017.4 1016.5 0.0
20/11:00am 25.7 23.3 5.3 27 10.5 WSW 7 15 4 8 1018.1 1017.1 0.0
20/10:30am 24.5 21.9 6.3 31 9.5 SSW 9 15 5 8 1018.4 1017.4 0.0
20/10:00am 22.4 19.7 5.8 34 8.4 WSW 9 17 5 9 1019.0 1018.0 0.0
20/09:30am 21.5 19.0 6.6 38 7.7 W 9 15 5 8 1019.2 1018.3 0.0
20/09:00am 20.4 19.0 8.7 47 6.2 WSW 6 11 3 6 1019.3 1018.4 0.0
20/08:30am 18.7 17.3 8.7 52 5.3 S 6 7 3 4 1019.5 1018.6 0.0
20/08:00am 17.6 16.1 9.0 57 4.5 S 7 9 4 5 1019.2 1018.3 0.0
20/07:30am 15.4 13.5 7.7 60 3.9 S 7 11 4 6 1018.7 1017.7 0.0
20/07:00am 15.1 14.1 9.0 67 3.2 NNE 4 9 2 5 1018.2 1017.2 0.0
20/06:56am 14.5 13.1 8.9 69 2.9 NNE 6 9 3 5 1018.1 1017.1 0.0
20/06:30am 9.5 7.3 6.2 80 1.5 N 7 11 4 6 1017.8 1016.9 0.0
20/06:00am 8.3 6.7 4.5 77 1.7 W 2 6 1 3 1017.4 1016.5 0.0
20/05:30am 8.8 7.0 5.2 78 1.6 SW 4 13 2 7 1016.9 1016.0 0.0
20/05:00am 9.0 7.8 4.4 73 2.1 CALM 0 0 0 0 1016.6 1015.7 0.0
20/04:30am 9.3 8.1 4.7 73 2.1 CALM 0 0 0 0 1016.2 1015.3 0.0
20/04:00am 11.3 10.2 5.0 65 2.9 CALM 0 0 0 0 1016.1 1015.2 0.0
20/03:30am 11.8 10.7 5.0 63 3.2 CALM 0 0 0 0 1016.3 1015.4 0.0
20/03:00am 15.3 13.8 6.8 57 4.2 N 4 11 2 6 1016.3 1015.4 0.0
20/02:30am 15.1 13.1 6.4 56 4.3 NNE 6 9 3 5 1016.5 1015.6 0.0
20/02:00am 15.4 13.4 6.4 55 4.4 N 6 9 3 5 1016.8 1015.9 0.0
20/01:30am 16.1 14.9 6.3 52 4.8 NE 2 7 1 4 1017.1 1016.2 0.0
20/01:00am 16.0 14.0 6.2 52 4.8 N 6 7 3 4 1017.0 1016.1 0.0
20/12:30am 17.6 15.9 5.9 46 5.8 N 4 7 2 4 1017.2 1016.3 0.0
20/12:00am 18.6 16.6 6.1 44 6.2 N 6 9 3 5 1017.5 1016.6 0.0
 
Date/Time
EST
Temp
°C
App
Temp
°C
Dew
Point
Rel
Hum
%
Delta-T
°C
Wind Press
QNH
hPa
Press
MSL
hPa
Rain
since 9 am
mm
Dir
 
Spd
km/h
Gust
km/h
Spd
kts
Gust
kts
19/11:30pm 19.7 16.4 6.4 42 6.7 N 13 20 7 11 1017.5 1016.6 0.0
19/11:00pm 19.1 17.1 7.2 46 6.1 N 7 15 4 8 1017.6 1016.7 0.0
19/10:30pm 17.9 15.7 6.1 46 5.9 N 7 9 4 5 1017.5 1016.6 0.0
19/10:00pm 17.1 15.2 4.8 44 5.9 N 4 6 2 3 1017.3 1016.4 0.0
19/09:30pm 16.6 14.5 3.7 42 6.1 NNE 4 7 2 4 1017.3 1016.4 0.0
19/09:00pm 18.3 15.6 3.8 38 6.9 SSE 7 13 4 7 1017.1 1016.2 0.0
19/08:30pm 17.2 15.8 3.5 40 6.4 CALM 0 0 0 0 1016.8 1015.9 0.0
19/08:00pm 18.7 17.3 3.3 36 7.3 CALM 0 0 0 0 1016.4 1015.5 0.0
19/07:30pm 19.0 17.5 2.8 34 7.6 CALM 0 0 0 0 1016.1 1015.2 0.0
19/07:00pm 22.0 20.3 1.6 26 9.6 CALM 0 0 0 0 1015.8 1014.8 0.0
19/06:30pm 24.5 22.4 1.4 22 11.0 W 2 9 1 5 1015.6 1014.6 0.0
19/06:00pm 27.3 24.7 0.9 18 12.7 WNW 4 6 2 3 1015.3 1014.3 0.0
19/05:30pm 29.2 26.0 0.8 16 13.8 W 7 15 4 8 1015.1 1014.1 0.0
19/05:00pm 30.1 27.1 0.6 15 14.4 WSW 6 9 3 5 1014.9 1013.9 0.0
19/04:30pm 30.2 26.1 -0.2 14 14.7 WSW 11 19 6 10 1014.7 1013.7 0.0
19/04:00pm 30.3 26.4 -1.2 13 14.9 W 9 17 5 9 1014.6 1013.6 0.0
19/03:30pm 30.5 25.1 -1.0 13 15.0 WSW 17 22 9 12 1014.6 1013.6 0.0
19/03:00pm 30.8 26.1 -1.9 12 15.4 WSW 13 24 7 13 1014.5 1013.5 0.0
19/02:30pm 30.1 25.1 -1.3 13 14.9 WSW 15 20 8 11 1015.1 1014.1 0.0
19/02:00pm 30.2 26.9 -0.2 14 14.7 NNE 7 15 4 8 1015.4 1014.4 0.0
19/01:30pm 29.9 25.4 -0.5 14 14.6 W 13 22 7 12 1015.8 1014.8 0.0
19/01:00pm 29.2 26.6 0.8 16 13.8 W 4 7 2 4 1016.4 1015.5 0.0
19/12:30pm 28.0 24.5 1.5 18 13.0 NE 9 19 5 10 1017.1 1016.2 0.0

Other Formats:

Comma delimited format used in spreadsheet applications
http://www.bom.gov.au/fwo/IDQ60801/IDQ60801.94395.axf

JavaScript Object Notation format (JSON) in row-major order
http://www.bom.gov.au/fwo/IDQ60801/IDQ60801.94395.json